Time;durP1;ratioP1;P1;durP2;ratioP2;P2;SDS_P1;SDS_P2;PMS_P1;PMS_P2;Temp;Humidity;BMP_temperature;BMP_pressure;BME280_temperature;BME280_humidity;BME280_pressure;Samples;Min_cycle;Max_cycle;Signal;HPM_P1;HPM_P2
2023/04/01 00:01:49;;;;;;;24.48;7.25;;;;;;;-143.48;100.00;118439.88;5074722;28;20025;-28
2023/04/01 00:04:15;;;;;;;36.20;7.65;;;;;;;-143.48;100.00;118439.88;5074475;28;20328;-28
2023/04/01 00:06:40;;;;;;;29.40;7.90;;;;;;;-143.48;100.00;118439.88;5056577;28;20024;-28
2023/04/01 00:09:06;;;;;;;23.88;6.60;;;;;;;-143.48;100.00;118439.88;5056634;28;20031;-28
2023/04/01 00:11:32;;;;;;;26.92;7.03;;;;;;;-143.48;100.00;118439.88;5074523;28;20044;-28
2023/04/01 00:13:57;;;;;;;22.15;6.85;;;;;;;-143.48;100.00;118439.88;5074475;28;20023;-28
2023/04/01 00:16:23;;;;;;;28.63;7.32;;;;;;;-143.48;100.00;118439.88;5074220;28;20095;-29
2023/04/01 00:18:50;;;;;;;25.50;7.65;;;;;;;-143.48;100.00;118439.88;5074340;28;20067;-29
2023/04/01 00:21:20;;;;;;;28.80;7.53;;;;;;;-143.48;100.00;118439.88;5074540;28;20103;-29
2023/04/01 00:23:46;;;;;;;25.10;8.07;;;;;;;-143.48;100.00;118439.88;5074101;28;20103;-28
2023/04/01 00:26:12;;;;;;;31.13;9.23;;;;;;;-143.48;100.00;118439.88;5074168;28;20091;-30
2023/04/01 00:28:37;;;;;;;25.85;9.55;;;;;;;-143.48;100.00;118439.88;5074354;28;20099;-29
2023/04/01 00:31:07;;;;;;;32.88;10.10;;;;;;;-143.48;100.00;118439.88;5074056;28;20460;-28
2023/04/01 00:33:32;;;;;;;30.02;9.60;;;;;;;-143.48;100.00;118439.88;5073969;28;20032;-28
2023/04/01 00:36:06;;;;;;;33.40;9.65;;;;;;;-143.48;100.00;118439.88;5073969;28;20107;-28
2023/04/01 00:38:32;;;;;;;26.83;9.50;;;;;;;-143.48;100.00;118439.88;5073818;28;20060;-28
2023/04/01 00:40:58;;;;;;;28.00;9.35;;;;;;;-143.48;100.00;118439.88;5074118;28;20467;-28
2023/04/01 00:43:23;;;;;;;33.03;11.52;;;;;;;-143.48;100.00;118439.88;5074031;28;20442;-28
2023/04/01 00:45:49;;;;;;;29.42;10.32;;;;;;;-143.48;100.00;118439.88;5073830;28;20024;-28
2023/04/01 00:48:20;;;;;;;40.00;11.00;;;;;;;-143.48;100.00;118439.88;5073792;28;20025;-28
2023/04/01 00:51:00;;;;;;;38.10;10.73;;;;;;;-143.48;100.00;118439.88;5073502;28;20032;-28
2023/04/01 00:53:27;;;;;;;30.80;10.73;;;;;;;-143.48;100.00;118439.88;5073290;28;20032;-28
2023/04/01 00:56:12;;;;;;;32.97;11.07;;;;;;;-143.48;100.00;118439.88;5073320;28;20094;-28
2023/04/01 00:58:42;;;;;;;29.27;10.75;;;;;;;-143.48;100.00;118439.88;5073504;28;20474;-28
2023/04/01 01:01:09;;;;;;;32.08;10.57;;;;;;;-143.48;100.00;118439.88;5073303;28;20043;-28
2023/04/01 01:03:34;;;;;;;33.03;11.50;;;;;;;-143.48;100.00;118439.88;5073292;28;20048;-28
2023/04/01 01:06:10;;;;;;;27.33;10.65;;;;;;;-143.48;100.00;118439.88;5073634;28;20032;-28
2023/04/01 01:08:55;;;;;;;24.20;9.30;;;;;;;-143.48;100.00;118439.88;5073353;28;20025;-28
2023/04/01 01:11:36;;;;;;;26.17;9.20;;;;;;;-143.48;100.00;118439.88;5073325;28;20478;-28
2023/04/01 01:14:13;;;;;;;19.33;7.13;;;;;;;-143.48;100.00;118439.88;5073576;28;20042;-28
2023/04/01 01:16:59;;;;;;;20.30;6.00;;;;;;;-143.48;100.00;118439.88;5073470;28;20421;-28
2023/04/01 01:19:47;;;;;;;18.70;5.85;;;;;;;-143.48;100.00;118439.88;5073574;28;20020;-28
2023/04/01 01:22:16;;;;;;;18.30;5.85;;;;;;;-143.48;100.00;118439.88;5073040;28;20035;-28
2023/04/01 01:24:47;;;;;;;11.93;5.00;;;;;;;-143.48;100.00;118439.88;5073118;28;20368;-28
2023/04/01 01:27:17;;;;;;;15.20;6.13;;;;;;;-143.48;100.00;118439.88;5073153;28;20518;-28
2023/04/01 01:30:04;;;;;;;15.45;6.50;;;;;;;-143.48;100.00;118439.88;5073197;28;20434;-28
2023/04/01 01:32:51;;;;;;;10.07;4.78;;;;;;;-143.48;100.00;118439.88;5073095;28;20438;-28
2023/04/01 01:35:42;;;;;;;15.05;5.15;;;;;;;-143.48;100.00;118439.88;5073104;28;20082;-28
2023/04/01 01:38:12;;;;;;;12.18;4.72;;;;;;;-143.48;100.00;118439.88;5072911;28;20020;-29
2023/04/01 01:40:42;;;;;;;13.88;5.53;;;;;;;-143.48;100.00;118439.88;5073042;28;20032;-28
2023/04/01 01:43:12;;;;;;;11.77;4.57;;;;;;;-143.48;100.00;118439.88;5073049;28;20422;-29
2023/04/01 01:45:44;;;;;;;11.60;5.22;;;;;;;-143.48;100.00;118439.88;5072823;28;20017;-29
2023/04/01 01:48:11;;;;;;;9.80;4.85;;;;;;;-143.48;100.00;118439.88;5072897;28;20020;-29
2023/04/01 01:50:38;;;;;;;7.25;3.95;;;;;;;-143.48;100.00;118439.88;5072861;28;20082;-29
2023/04/01 01:53:12;;;;;;;12.73;4.50;;;;;;;-143.48;100.00;118439.88;5072867;28;20032;-29
2023/04/01 01:55:40;;;;;;;11.73;4.40;;;;;;;-143.48;100.00;118439.88;5072731;28;20027;-29
2023/04/01 01:58:16;;;;;;;10.55;4.07;;;;;;;-143.48;100.00;118439.88;5072683;28;20033;-29
2023/04/01 02:00:46;;;;;;;9.93;4.20;;;;;;;-143.48;100.00;118439.88;5073045;28;20017;-29
2023/04/01 02:03:14;;;;;;;12.50;4.35;;;;;;;-143.48;100.00;118439.88;5072590;28;20036;-28
2023/04/01 02:05:40;;;;;;;9.48;4.38;;;;;;;-143.48;100.00;118439.88;5074629;28;20031;-28
2023/04/01 02:08:18;;;;;;;11.85;4.80;;;;;;;-143.48;100.00;118439.88;5058844;28;20453;-28
2023/04/01 02:10:55;;;;;;;8.88;4.57;;;;;;;-143.48;100.00;118439.88;5076718;28;20032;-28
2023/04/01 02:13:44;;;;;;;11.80;4.47;;;;;;;-143.48;100.00;118439.88;5076753;28;20025;-28
2023/04/01 02:16:18;;;;;;;11.63;4.38;;;;;;;-143.48;100.00;118439.88;5058611;28;20025;-27
2023/04/01 02:18:47;;;;;;;7.13;4.38;;;;;;;-143.48;100.00;118439.88;5076548;28;20050;-27
2023/04/01 02:21:14;;;;;;;12.43;4.80;;;;;;;-143.48;100.00;118439.88;5076577;28;20085;-28
2023/04/01 02:23:40;;;;;;;11.07;5.28;;;;;;;-143.48;100.00;118439.88;5076440;28;20017;-28
2023/04/01 02:26:07;;;;;;;11.68;4.80;;;;;;;-143.48;100.00;118439.88;5076487;28;20032;-27
2023/04/01 02:28:36;;;;;;;11.15;4.88;;;;;;;-143.48;100.00;118439.88;5076617;28;20080;-27
2023/04/01 02:31:03;;;;;;;12.80;4.90;;;;;;;-143.48;100.00;118439.88;5076360;28;20029;-28
2023/04/01 02:33:30;;;;;;;9.07;4.80;;;;;;;-143.48;100.00;118439.88;5076338;28;20115;-28
2023/04/01 02:35:55;;;;;;;11.00;5.28;;;;;;;-143.48;100.00;118439.88;5058326;28;20024;-28
2023/04/01 02:38:21;;;;;;;8.95;5.38;;;;;;;-143.48;100.00;118439.88;5076139;28;20029;-28
2023/04/01 02:40:49;;;;;;;9.55;5.60;;;;;;;-143.48;100.00;118439.88;5076050;28;20104;-28
2023/04/01 02:43:16;;;;;;;13.98;6.50;;;;;;;-143.48;100.00;118439.88;5076099;28;20025;-28
2023/04/01 02:45:41;;;;;;;14.50;7.55;;;;;;;-143.48;100.00;118439.88;5076412;28;20025;-28
2023/04/01 02:48:06;;;;;;;12.60;7.35;;;;;;;-143.48;100.00;118439.88;5075992;28;20524;-28
2023/04/01 02:50:32;;;;;;;13.30;7.95;;;;;;;-143.48;100.00;118439.88;5076198;28;20024;-28
2023/04/01 02:52:57;;;;;;;22.50;8.75;;;;;;;-143.48;100.00;118439.88;5076230;28;20020;-27
2023/04/01 02:55:23;;;;;;;19.48;9.25;;;;;;;-143.48;100.00;118439.88;5075937;28;20102;-27
2023/04/01 02:57:48;;;;;;;17.70;9.20;;;;;;;-143.48;100.00;118439.88;5075757;28;20017;-28
2023/04/01 03:00:14;;;;;;;19.63;9.48;;;;;;;-143.48;100.00;118439.88;5075892;28;20548;-28
2023/04/01 03:02:39;;;;;;;19.88;9.70;;;;;;;-143.48;100.00;118439.88;5075696;28;20027;-28
2023/04/01 03:05:06;;;;;;;19.90;10.00;;;;;;;-143.48;100.00;118439.88;5075578;28;20511;-28
2023/04/01 03:07:31;;;;;;;25.17;11.02;;;;;;;-143.48;100.00;118439.88;5075667;28;20027;-27
2023/04/01 03:09:56;;;;;;;22.70;10.98;;;;;;;-143.48;100.00;118439.88;5075634;28;20028;-28
2023/04/01 03:12:22;;;;;;;22.42;11.48;;;;;;;-143.48;100.00;118439.88;5075553;28;20075;-28
2023/04/01 03:14:47;;;;;;;24.98;11.77;;;;;;;-143.48;100.00;118439.88;5075559;28;20059;-28
2023/04/01 03:17:12;;;;;;;26.88;11.90;;;;;;;-143.48;100.00;118439.88;5074620;28;20477;-27
2023/04/01 03:19:38;;;;;;;24.08;11.15;;;;;;;-143.48;100.00;118439.88;5075525;28;20032;-27
2023/04/01 03:22:03;;;;;;;25.80;11.20;;;;;;;-143.48;100.00;118439.88;5075547;28;20025;-28
2023/04/01 03:24:29;;;;;;;23.95;10.15;;;;;;;-143.48;100.00;118439.88;5075189;28;20021;-28
2023/04/01 03:26:54;;;;;;;22.27;9.25;;;;;;;-143.48;100.00;118439.88;5075422;28;20483;-29
2023/04/01 03:29:19;;;;;;;19.65;9.70;;;;;;;-143.48;100.00;118439.88;5075386;28;20025;-28
2023/04/01 03:31:45;;;;;;;20.30;9.32;;;;;;;-143.48;100.00;118439.88;5075511;28;20044;-34
2023/04/01 03:34:10;;;;;;;17.98;9.40;;;;;;;-143.48;100.00;118439.88;5075140;28;20063;-28
2023/04/01 03:36:36;;;;;;;20.65;8.77;;;;;;;-143.48;100.00;118439.88;5075143;28;20486;-28
2023/04/01 03:39:02;;;;;;;17.58;8.63;;;;;;;-143.48;100.00;118439.88;5075154;28;20032;-27
2023/04/01 03:41:28;;;;;;;15.63;8.38;;;;;;;-143.48;100.00;118439.88;5075149;28;20020;-27
2023/04/01 03:43:53;;;;;;;18.80;8.07;;;;;;;-143.48;100.00;118439.88;5057023;28;20124;-28
2023/04/01 03:46:19;;;;;;;14.98;7.82;;;;;;;-143.48;100.00;118439.88;5074938;28;20055;-28
2023/04/01 03:48:44;;;;;;;22.02;8.80;;;;;;;-143.48;100.00;118439.88;5075205;28;20086;-28
2023/04/01 03:51:10;;;;;;;21.60;8.98;;;;;;;-143.48;100.00;118439.88;5075191;28;20099;-27
2023/04/01 03:53:35;;;;;;;16.00;8.23;;;;;;;-143.48;100.00;118439.88;5075225;28;20102;-28
2023/04/01 03:56:07;;;;;;;21.48;8.55;;;;;;;-143.48;100.00;118439.88;5075060;28;20063;-28
2023/04/01 03:58:32;;;;;;;16.27;7.78;;;;;;;-143.48;100.00;118439.88;5074748;28;20032;-27
2023/04/01 04:00:58;;;;;;;15.60;7.40;;;;;;;-143.48;100.00;118439.88;5074665;28;20044;-28
2023/04/01 04:03:23;;;;;;;10.50;5.78;;;;;;;-143.48;100.00;118439.88;5074551;28;20055;-28
2023/04/01 04:05:49;;;;;;;12.95;6.38;;;;;;;-143.48;100.00;118439.88;5074598;28;20110;-27
2023/04/01 04:08:15;;;;;;;9.93;4.60;;;;;;;-143.48;100.00;118439.88;5074754;28;20052;-28
2023/04/01 04:10:41;;;;;;;7.38;4.28;;;;;;;-143.48;100.00;118439.88;5074545;28;20107;-28
2023/04/01 04:13:06;;;;;;;7.07;4.05;;;;;;;-143.48;100.00;118439.88;5056465;28;20033;-28
2023/04/01 04:15:32;;;;;;;6.82;3.92;;;;;;;-143.48;100.00;118439.88;5074502;28;20032;-27
2023/04/01 04:17:57;;;;;;;9.85;4.20;;;;;;;-143.48;100.00;118439.88;5074149;28;20025;-28
2023/04/01 04:20:22;;;;;;;7.88;3.80;;;;;;;-143.48;100.00;118439.88;5074310;28;20028;-27
2023/04/01 04:22:48;;;;;;;7.80;4.28;;;;;;;-143.48;100.00;118439.88;5074134;28;20028;-28
2023/04/01 04:25:13;;;;;;;7.07;3.90;;;;;;;-143.48;100.00;118439.88;5074286;28;20056;-27
2023/04/01 04:27:39;;;;;;;7.80;4.38;;;;;;;-143.48;100.00;118439.88;5074123;28;20052;-27
2023/04/01 04:30:06;;;;;;;8.80;4.80;;;;;;;-143.48;100.00;118439.88;5072986;28;20467;-27
2023/04/01 04:32:31;;;;;;;11.40;5.20;;;;;;;-143.48;100.00;118439.88;5073970;28;20035;-28
2023/04/01 04:34:56;;;;;;;10.23;5.13;;;;;;;-143.48;100.00;118439.88;5073994;28;20032;-27
2023/04/01 04:37:22;;;;;;;9.75;5.30;;;;;;;-143.48;100.00;118439.88;5073876;28;20479;-28
2023/04/01 04:39:47;;;;;;;9.30;5.70;;;;;;;-143.48;100.00;118439.88;5073874;28;20063;-28
2023/04/01 04:42:12;;;;;;;9.93;5.75;;;;;;;-143.48;100.00;118439.88;5073891;28;20020;-35
2023/04/01 04:44:39;;;;;;;11.68;6.20;;;;;;;-143.48;100.00;118439.88;5073840;28;20032;-28
2023/04/01 04:47:04;;;;;;;9.85;5.95;;;;;;;-143.48;100.00;118439.88;5073835;28;20048;-28
2023/04/01 04:49:30;;;;;;;12.93;6.43;;;;;;;-143.48;100.00;118439.88;5073700;28;20107;-32
2023/04/01 04:51:55;;;;;;;11.82;6.65;;;;;;;-143.48;100.00;118439.88;5073706;28;20031;-27
2023/04/01 04:54:21;;;;;;;10.23;6.32;;;;;;;-143.48;100.00;118439.88;5073628;28;20044;-28
2023/04/01 04:56:46;;;;;;;9.98;6.03;;;;;;;-143.48;100.00;118439.88;5073568;28;20024;-28
2023/04/01 04:59:12;;;;;;;11.05;6.30;;;;;;;-143.48;100.00;118439.88;5073607;28;20115;-28
2023/04/01 05:01:38;;;;;;;12.05;6.32;;;;;;;-143.48;100.00;118439.88;5073769;28;20732;-28
2023/04/01 05:04:03;;;;;;;12.05;6.40;;;;;;;-143.48;100.00;118439.88;5055394;28;20041;-27
2023/04/01 05:06:31;;;;;;;11.20;6.68;;;;;;;-143.48;100.00;118439.88;5073422;28;20091;-28
2023/04/01 05:08:57;;;;;;;11.32;6.65;;;;;;;-143.48;100.00;118439.88;5073429;28;20020;-29
2023/04/01 05:11:22;;;;;;;11.18;6.60;;;;;;;-143.48;100.00;118439.88;5073657;28;20036;-27
2023/04/01 05:13:48;;;;;;;14.90;7.25;;;;;;;-143.48;100.00;118439.88;5073341;28;20473;-28
2023/04/01 05:16:16;;;;;;;11.95;7.28;;;;;;;-143.48;100.00;118439.88;5073529;28;20467;-28
2023/04/01 05:18:41;;;;;;;12.07;6.97;;;;;;;-143.48;100.00;118439.88;5073272;28;20028;-28
2023/04/01 05:21:07;;;;;;;14.63;7.70;;;;;;;-143.48;100.00;118439.88;5055291;28;20090;-28
2023/04/01 05:23:33;;;;;;;13.35;7.53;;;;;;;-143.48;100.00;118439.88;5073132;28;20459;-28
2023/04/01 05:26:02;;;;;;;12.45;6.97;;;;;;;-143.48;100.00;118439.88;5073367;28;20078;-29
2023/04/01 05:28:27;;;;;;;12.63;7.03;;;;;;;-143.48;100.00;118439.88;5073181;28;20048;-29
2023/04/01 05:30:52;;;;;;;13.13;7.30;;;;;;;-143.48;100.00;118439.88;5073372;28;20056;-29
2023/04/01 05:33:17;;;;;;;13.35;7.30;;;;;;;-143.48;100.00;118439.88;5073398;28;20119;-28
2023/04/01 05:35:43;;;;;;;11.50;6.97;;;;;;;-143.48;100.00;118439.88;5073020;28;20016;-29
2023/04/01 05:38:08;;;;;;;11.63;6.75;;;;;;;-143.48;100.00;118439.88;5073025;28;20098;-28
2023/04/01 05:40:33;;;;;;;12.80;7.53;;;;;;;-143.48;100.00;118439.88;5072688;28;20415;-28
2023/04/01 05:43:00;;;;;;;11.48;6.80;;;;;;;-143.48;100.00;118439.88;5072944;28;20040;-28
2023/04/01 05:45:26;;;;;;;11.27;6.68;;;;;;;-143.48;100.00;118439.88;5072935;28;20895;-28
2023/04/01 05:47:52;;;;;;;13.18;7.50;;;;;;;-143.48;100.00;118439.88;5072843;28;20017;-28
2023/04/01 05:50:17;;;;;;;14.63;7.28;;;;;;;-143.48;100.00;118439.88;5072927;28;20391;-28
2023/04/01 05:52:44;;;;;;;10.82;6.65;;;;;;;-143.48;100.00;118439.88;5072814;28;20028;-28
2023/04/01 05:55:09;;;;;;;11.45;6.80;;;;;;;-143.48;100.00;118439.88;5073085;28;20601;-28
2023/04/01 05:57:35;;;;;;;11.63;6.65;;;;;;;-143.48;100.00;118439.88;5072743;28;20407;-28
2023/04/01 06:00:00;;;;;;;11.45;6.72;;;;;;;-143.48;100.00;118439.88;5072808;28;20024;-28
2023/04/01 06:02:25;;;;;;;11.95;6.50;;;;;;;-143.48;100.00;118439.88;5054836;28;20498;-28
2023/04/01 06:05:01;;;;;;;10.50;6.35;;;;;;;-143.48;100.00;118439.88;5072619;28;20049;-28
2023/04/01 06:07:27;;;;;;;12.18;6.35;;;;;;;-143.48;100.00;118439.88;5072730;28;20356;-28
2023/04/01 06:09:54;;;;;;;12.32;6.20;;;;;;;-143.48;100.00;118439.88;5072607;28;20024;-28
2023/04/01 06:12:44;;;;;;;13.05;6.60;;;;;;;-143.48;100.00;118439.88;5054734;28;20501;-28
2023/04/01 06:16:04;;;;;;;10.55;6.63;;;;;;;-143.48;100.00;118439.88;5072847;28;20055;-28
2023/04/01 06:18:51;;;;;;;14.63;5.82;;;;;;;-143.48;100.00;118439.88;5026822;28;20037;-27
2023/04/01 06:21:19;;;;;;;10.10;5.13;;;;;;;-143.48;100.00;118439.88;5072606;28;20082;-28
2023/04/01 06:24:07;;;;;;;9.05;4.95;;;;;;;-143.48;100.00;118439.88;5072473;28;20028;-28
2023/04/01 06:26:38;;;;;;;9.27;5.57;;;;;;;-143.48;100.00;118439.88;5072532;28;20025;-28
2023/04/01 06:29:34;;;;;;;14.15;5.88;;;;;;;-143.48;100.00;118439.88;5072493;28;20021;-28
2023/04/01 06:32:31;;;;;;;8.48;4.78;;;;;;;-143.48;100.00;118439.88;5072461;28;20103;-28
2023/04/01 06:35:12;;;;;;;8.38;4.75;;;;;;;-143.48;100.00;118439.88;5071584;28;20115;-28
2023/04/01 06:37:50;;;;;;;8.27;4.85;;;;;;;-143.48;100.00;118439.88;5072373;28;20029;-27
2023/04/01 06:40:28;;;;;;;11.20;4.97;;;;;;;-143.48;100.00;118439.88;5072340;28;20190;-29
2023/04/01 06:43:29;;;;;;;6.55;3.88;;;;;;;-143.48;100.00;118439.88;5072176;28;20032;-28
2023/04/01 06:46:04;;;;;;;6.80;4.10;;;;;;;-143.48;100.00;118439.88;5072232;28;20036;-28
2023/04/01 06:48:57;;;;;;;7.63;3.55;;;;;;;-143.48;100.00;118439.88;5072186;28;20025;-28
2023/04/01 06:51:36;;;;;;;5.20;3.53;;;;;;;-143.48;100.00;118439.88;5072224;28;20083;-28
2023/04/01 06:54:19;;;;;;;6.47;3.78;;;;;;;-143.48;100.00;118439.88;5075802;28;20482;-28
2023/04/01 06:56:50;;;;;;;7.40;4.28;;;;;;;-143.48;100.00;118439.88;5075681;28;20028;-28
2023/04/01 06:59:20;;;;;;;6.40;4.22;;;;;;;-143.48;100.00;118439.88;5075800;28;20475;-28
2023/04/01 07:01:57;;;;;;;9.85;5.55;;;;;;;-143.48;100.00;118439.88;5075635;28;20017;-28
2023/04/01 07:04:30;;;;;;;13.77;6.35;;;;;;;-143.48;100.00;118439.88;5075357;28;20056;-28
2023/04/01 07:07:00;;;;;;;12.73;7.03;;;;;;;-143.48;100.00;118439.88;5075656;28;20029;-28
2023/04/01 07:09:36;;;;;;;12.02;7.40;;;;;;;-143.48;100.00;118439.88;5075727;28;20446;-28
2023/04/01 07:12:20;;;;;;;15.82;7.28;;;;;;;-143.48;100.00;118439.88;5075924;28;20028;-28
2023/04/01 07:14:49;;;;;;;11.82;6.50;;;;;;;-143.48;100.00;118439.88;5075538;28;20482;-28
2023/04/01 07:17:20;;;;;;;12.38;6.88;;;;;;;-143.48;100.00;118439.88;5075506;28;20021;-29
2023/04/01 07:19:52;;;;;;;15.82;6.10;;;;;;;-143.48;100.00;118439.88;5075810;28;20576;-27
2023/04/01 07:22:31;;;;;;;11.93;7.05;;;;;;;-143.48;100.00;118439.88;5075583;28;20348;-27
2023/04/01 07:25:01;;;;;;;12.70;6.90;;;;;;;-143.48;100.00;118439.88;5075273;28;20028;-28
2023/04/01 07:27:27;;;;;;;13.02;6.82;;;;;;;-143.48;100.00;118439.88;5057067;28;20467;-28
2023/04/01 07:29:55;;;;;;;15.02;7.38;;;;;;;-143.48;100.00;118439.88;5074278;28;20071;-28
2023/04/01 07:32:45;;;;;;;14.48;6.97;;;;;;;-143.48;100.00;118439.88;5075516;28;20035;-28
2023/04/01 07:35:51;;;;;;;15.70;8.02;;;;;;;-143.48;100.00;118439.88;5075110;28;20028;-28
2023/04/01 07:41:42;;;;;;;16.05;7.63;;;;;;;-143.48;100.00;118439.88;5034815;28;20050;-72
2023/04/01 07:44:32;;;;;;;19.25;9.02;;;;;;;-143.48;100.00;118439.88;5017712;28;20040;-72
2023/04/01 07:47:16;;;;;;;20.40;8.38;;;;;;;-143.48;100.00;118439.88;5017644;28;20029;-72
2023/04/01 07:49:53;;;;;;;18.35;8.43;;;;;;;-143.48;100.00;118439.88;5035559;28;20033;-71
2023/04/01 07:52:53;;;;;;;19.88;8.13;;;;;;;-143.48;100.00;118439.88;5018109;28;20485;-72
2023/04/01 07:55:21;;;;;;;17.33;7.88;;;;;;;-143.48;100.00;118439.88;5003715;28;20554;-72
2023/04/01 07:58:20;;;;;;;20.38;8.68;;;;;;;-143.48;100.00;118439.88;5017409;28;20700;-72
2023/04/01 08:01:15;;;;;;;18.35;8.85;;;;;;;-143.48;100.00;118439.88;5017978;28;20029;-72
2023/04/01 08:03:58;;;;;;;17.92;8.98;;;;;;;-143.48;100.00;118439.88;4997295;28;20037;-71
2023/04/01 08:06:37;;;;;;;;;;;;;;;-143.48;100.00;118439.88;5038315;28;20042;-75
2023/04/01 08:09:31;;;;;;;17.92;8.10;;;;;;;-143.48;100.00;118439.88;5019627;28;19993;-73
2023/04/01 08:12:21;;;;;;;17.55;8.13;;;;;;;-143.48;100.00;118439.88;5017303;28;20389;-73
2023/04/01 08:14:53;;;;;;;16.83;8.35;;;;;;;-143.48;100.00;118439.88;5017660;28;20029;-73
2023/04/01 08:17:29;;;;;;;16.67;8.52;;;;;;;-143.48;100.00;118439.88;5035271;28;20538;-73
2023/04/01 08:20:09;;;;;;;16.95;8.18;;;;;;;-143.48;100.00;118439.88;5017162;28;20041;-73
2023/04/01 08:22:42;;;;;;;16.98;8.13;;;;;;;-143.48;100.00;118439.88;5017422;28;20037;-74
2023/04/01 08:25:16;;;;;;;16.02;7.85;;;;;;;-143.48;100.00;118439.88;5017007;28;20017;-72
2023/04/01 08:27:51;;;;;;;18.33;8.25;;;;;;;-143.48;100.00;118439.88;5018345;28;20021;-71
2023/04/01 08:30:23;;;;;;;17.20;8.43;;;;;;;-143.48;100.00;118439.88;5017350;28;20041;-72
2023/04/01 08:32:56;;;;;;;20.45;8.45;;;;;;;-143.48;100.00;118439.88;5017650;28;20025;-73
2023/04/01 08:35:34;;;;;;;18.30;8.20;;;;;;;-143.48;100.00;118439.88;5024680;28;20037;-72
2023/04/01 08:38:12;;;;;;;13.88;7.70;;;;;;;-143.48;100.00;118439.88;5016795;28;20017;-71
2023/04/01 08:40:56;;;;;;;15.75;7.65;;;;;;;-143.48;100.00;118439.88;5036346;28;20509;-72
2023/04/01 08:43:43;;;;;;;17.77;8.15;;;;;;;-143.48;100.00;118439.88;5017349;28;20026;-72
2023/04/01 08:46:11;;;;;;;16.92;7.25;;;;;;;-143.48;100.00;118439.88;5034523;28;20095;-72
2023/04/01 08:48:40;;;;;;;12.07;6.68;;;;;;;-143.48;100.00;118439.88;5016639;28;20053;-72
2023/04/01 08:51:27;;;;;;;17.42;7.22;;;;;;;-143.48;100.00;118439.88;5016504;28;20056;-71
2023/04/01 08:53:58;;;;;;;11.15;6.25;;;;;;;-143.48;100.00;118439.88;5016971;28;20052;-71
2023/04/01 08:56:31;;;;;;;12.40;5.90;;;;;;;-143.48;100.00;118439.88;5016565;28;20025;-71
2023/04/01 08:59:03;;;;;;;;;;;;;;;-143.48;100.00;118439.88;5035143;28;20460;-71
2023/04/01 09:01:59;;;;;;;11.85;5.57;;;;;;;-143.48;100.00;118439.88;5034397;28;19959;-72
2023/04/01 09:04:46;;;;;;;10.52;5.72;;;;;;;-143.48;100.00;118439.88;5016513;28;20033;-70
2023/04/01 09:07:44;;;;;;;9.43;5.32;;;;;;;-143.48;100.00;118439.88;5016248;28;20052;-72
2023/04/01 09:10:21;;;;;;;10.43;5.40;;;;;;;-143.48;100.00;118439.88;5020597;28;20062;-73
2023/04/01 09:13:11;;;;;;;9.55;5.28;;;;;;;-143.48;100.00;118439.88;5016200;28;20026;-72
2023/04/01 09:15:42;;;;;;;8.18;5.10;;;;;;;-143.48;100.00;118439.88;5033484;28;20132;-71
2023/04/01 09:18:32;;;;;;;7.97;4.70;;;;;;;-143.48;100.00;118439.88;5016582;28;20439;-71
2023/04/01 09:21:06;;;;;;;9.73;4.88;;;;;;;-143.48;100.00;118439.88;5018060;28;20432;-72
2023/04/01 09:23:40;;;;;;;7.90;4.70;;;;;;;-143.48;100.00;118439.88;5018661;28;20029;-70
2023/04/01 09:26:41;;;;;;;8.93;4.95;;;;;;;-143.48;100.00;118439.88;5018062;28;20022;-71
2023/04/01 09:29:25;;;;;;;11.43;4.93;;;;;;;-143.48;100.00;118439.88;5034912;28;20029;-71
2023/04/01 09:32:18;;;;;;;10.98;5.50;;;;;;;-143.48;100.00;118439.88;5034511;28;20036;-70
2023/04/01 09:35:06;;;;;;;8.52;4.78;;;;;;;-143.48;100.00;118439.88;5017944;28;20481;-70
2023/04/01 09:37:51;;;;;;;8.80;4.95;;;;;;;-143.48;100.00;118439.88;5019298;28;20456;-71
2023/04/01 09:40:23;;;;;;;10.38;5.28;;;;;;;-143.48;100.00;118439.88;5016740;28;20103;-72
2023/04/01 09:43:03;;;;;;;10.27;6.33;;;;;;;-143.48;100.00;118439.88;5036199;28;20534;-71
2023/04/01 09:45:51;;;;;;;10.68;5.47;;;;;;;-143.48;100.00;118439.88;5016790;28;20771;-73
2023/04/01 09:48:28;;;;;;;10.20;6.45;;;;;;;-143.48;100.00;118439.88;5016934;28;20049;-72
2023/04/01 09:51:19;;;;;;;12.82;6.55;;;;;;;-143.48;100.00;118439.88;5015661;28;20392;-72
2023/04/01 09:57:54;;;;;;;12.75;7.22;;;;;;;-143.48;100.00;118439.88;5035887;28;20059;-71
2023/04/01 10:00:45;;;;;;;9.87;6.47;;;;;;;-143.48;100.00;118439.88;5016683;28;20040;-71
2023/04/01 10:03:26;;;;;;;12.07;7.28;;;;;;;-143.48;100.00;118439.88;5016530;28;20032;-72
2023/04/01 10:06:03;;;;;;;12.30;7.25;;;;;;;-143.48;100.00;118439.88;5017034;28;20485;-72
2023/04/01 10:08:51;;;;;;;13.40;7.93;;;;;;;-143.48;100.00;118439.88;5016489;28;20025;-72
2023/04/01 10:12:02;;;;;;;13.52;8.23;;;;;;;-143.48;100.00;118439.88;5015969;28;20025;-72
2023/04/01 10:14:39;;;;;;;12.55;7.82;;;;;;;-143.48;100.00;118439.88;5033740;28;20108;-71
2023/04/01 10:17:28;;;;;;;12.65;7.88;;;;;;;-143.48;100.00;118439.88;5016528;28;20095;-72
2023/04/01 10:20:31;;;;;;;12.75;7.47;;;;;;;-143.48;100.00;118439.88;5016775;28;20025;-73
2023/04/01 10:23:22;;;;;;;11.63;7.55;;;;;;;-143.48;100.00;118439.88;5015782;28;20030;-72
2023/04/01 10:26:05;;;;;;;16.02;8.15;;;;;;;-143.48;99.88;118439.88;5036260;28;20060;-71
2023/04/01 10:28:33;;;;;;;11.85;7.25;;;;;;;-143.48;100.00;118439.88;5020471;28;20021;-71
2023/04/01 10:31:21;;;;;;;12.90;7.63;;;;;;;-143.48;100.00;118439.88;5020304;28;20120;-72
2023/04/01 10:33:50;;;;;;;11.05;7.30;;;;;;;-143.48;99.92;118439.88;4971922;28;20088;-71
2023/04/01 10:36:30;;;;;;;11.32;6.47;;;;;;;-143.48;99.78;118439.88;5019611;28;20025;-72
2023/04/01 10:39:14;;;;;;;8.25;5.65;;;;;;;-143.48;99.66;118439.88;5019380;28;20025;-72
2023/04/01 10:41:54;;;;;;;7.85;5.65;;;;;;;-143.48;98.95;118439.88;5037004;28;20076;-72
2023/04/01 10:44:42;;;;;;;8.15;5.18;;;;;;;-143.48;100.00;118439.88;5019287;28;20029;-73
2023/04/01 10:47:08;;;;;;;9.02;6.07;;;;;;;-143.48;99.51;118439.88;5022662;28;20025;-74
2023/04/01 10:50:00;;;;;;;10.35;5.60;;;;;;;-143.48;99.96;118439.88;5020851;28;20392;-73
2023/04/01 10:52:50;;;;;;;8.00;5.63;;;;;;;-143.48;100.00;118439.88;5020709;28;20021;-74
2023/04/01 10:55:33;;;;;;;9.05;5.65;;;;;;;-143.48;100.00;118439.88;5038978;28;20032;-74
2023/04/01 10:58:17;;;;;;;;;;;;;;;-143.48;100.00;118439.88;5021898;28;20481;-74
2023/04/01 11:00:57;;;;;;;7.25;5.32;;;;;;;-143.48;100.00;118439.88;5019467;28;20304;-73
2023/04/01 11:03:45;;;;;;;7.50;5.20;;;;;;;-143.48;99.89;118439.88;5037652;28;20029;-72
2023/04/01 11:07:07;;;;;;;8.70;5.45;;;;;;;-143.48;99.12;118439.88;5020267;28;20108;-73
2023/04/01 11:09:54;;;;;;;7.10;5.03;;;;;;;-143.48;97.41;118439.88;5024873;28;20097;-73
2023/04/01 11:12:31;;;;;;;7.20;4.68;;;;;;;-143.48;97.86;118439.88;5018656;28;20091;-73
2023/04/01 11:15:21;;;;;;;8.15;4.53;;;;;;;-143.48;98.53;118439.88;5021671;28;20009;-73
2023/04/01 11:18:17;;;;;;;6.45;4.20;;;;;;;-143.48;98.01;118439.88;5023192;28;20488;-71
2023/04/01 11:21:01;;;;;;;7.05;4.82;;;;;;;-143.48;98.02;118439.88;5020877;28;20056;-71
2023/04/01 11:23:42;;;;;;;7.75;5.18;;;;;;;-143.48;99.30;118439.88;5020378;28;20033;-71
2023/04/01 11:26:17;;;;;;;7.88;5.40;;;;;;;-143.48;99.01;118439.88;5039895;28;20365;-71
2023/04/01 11:28:54;;;;;;;8.27;5.70;;;;;;;-143.48;98.91;118439.88;5019046;28;20493;-71
2023/04/01 11:31:36;;;;;;;10.30;6.32;;;;;;;-143.48;98.90;118439.88;5021620;28;20033;-71
2023/04/01 11:34:35;;;;;;;9.50;5.90;;;;;;;-143.48;97.98;118439.88;5037682;28;20066;-70
2023/04/01 11:37:18;;;;;;;9.20;6.18;;;;;;;-143.48;98.19;118439.88;5021092;28;20037;-71